Time;durP1;ratioP1;P1;durP2;ratioP2;P2;SDS_P1;SDS_P2;PMS_P1;PMS_P2;Temp;Humidity;BMP_temperature;BMP_pressure;BME280_temperature;BME280_humidity;BME280_pressure;Samples;Min_cycle;Max_cycle;Signal;HPM_P1;HPM_P2
2022/12/14 13:20:26;;;;;;;28.33;20.00;;;;;;;0.65;72.46;98212.25;918019;54;20494;31
2022/12/14 13:21:31;;;;;;;25.65;20.42;;;;;;;0.60;72.40;98214.41;1086843;54;19966;-80
2022/12/14 13:22:38;;;;;;;25.88;20.50;;;;;;;0.51;72.78;98216.00;1087680;54;20042;-79
2022/12/14 13:23:42;;;;;;;30.58;21.10;;;;;;;0.40;72.81;98218.69;1087523;54;20062;-79
2022/12/14 13:24:50;;;;;;;28.15;20.58;;;;;;;0.40;72.99;98232.66;1087679;54;20192;-78
2022/12/14 13:26:17;;;;;;;27.45;19.73;;;;;;;0.32;73.30;98227.19;1087603;54;20030;-78
2022/12/14 13:28:05;;;;;;;29.25;19.63;;;;;;;0.26;73.18;98228.50;1087655;54;20042;-81
2022/12/14 13:29:33;;;;;;;28.10;19.25;;;;;;;0.22;73.28;98236.75;1087734;54;20035;-78
2022/12/14 13:31:09;;;;;;;30.27;20.40;;;;;;;0.18;73.34;98224.84;1087869;54;20042;-80
2022/12/14 13:32:39;;;;;;;28.33;20.20;;;;;;;0.09;73.47;98229.88;1090345;46;20034;-78
2022/12/14 13:34:13;;;;;;;30.15;21.75;;;;;;;-0.01;73.78;98224.50;1087801;47;20051;-79
2022/12/14 13:35:51;;;;;;;27.55;20.52;;;;;;;0.03;73.76;98222.47;1087552;54;20057;-78
2022/12/14 13:37:27;;;;;;;30.20;21.92;;;;;;;0.01;73.96;98226.19;1087603;54;20030;-81
2022/12/14 13:38:57;;;;;;;32.65;21.08;;;;;;;0.01;74.02;98229.63;1087809;54;20042;-79
2022/12/14 13:40:35;;;;;;;23.45;15.63;;;;;;;-0.02;73.95;98227.28;1087649;54;20038;-78
2022/12/14 13:41:44;;;;;;;28.17;20.02;;;;;;;0.00;73.67;98225.38;1087806;54;20061;-78
2022/12/14 13:42:56;;;;;;;28.80;20.65;;;;;;;0.07;73.85;98226.53;1087596;54;20042;-78
2022/12/14 13:44:31;;;;;;;27.65;19.45;;;;;;;0.10;73.46;98222.81;1087872;54;20672;-82
2022/12/14 13:45:45;;;;;;;24.70;18.85;;;;;;;0.14;73.58;98222.44;1087207;54;20042;-83
2022/12/14 13:46:57;;;;;;;29.77;20.08;;;;;;;0.17;73.45;98231.88;1087075;54;20042;-78
2022/12/14 13:48:02;;;;;;;25.88;19.20;;;;;;;0.20;73.23;98231.63;1086987;54;20042;-77
2022/12/14 13:49:18;;;;;;;29.17;19.92;;;;;;;0.22;73.18;98228.88;1087308;54;20021;-78
2022/12/14 13:50:30;;;;;;;25.27;18.67;;;;;;;0.21;73.29;98235.09;1087146;54;20126;-79
2022/12/14 13:51:40;;;;;;;30.15;20.35;;;;;;;0.18;73.30;98230.09;1086837;54;20110;-78
2022/12/14 13:52:45;;;;;;;30.95;21.25;;;;;;;0.20;73.33;98228.16;1087164;54;20045;-78
2022/12/14 13:53:53;;;;;;;31.73;21.00;;;;;;;0.18;73.41;98235.34;1087197;54;20042;-78
2022/12/14 13:54:57;;;;;;;27.92;21.00;;;;;;;0.05;73.73;98241.59;1087207;47;20030;-79
2022/12/14 13:56:03;;;;;;;30.88;23.05;;;;;;;0.04;74.06;98239.09;1087261;54;20065;-79
2022/12/14 13:57:11;;;;;;;30.27;21.63;;;;;;;0.07;74.04;98239.69;1087254;54;20041;-78
2022/12/14 13:58:20;;;;;;;30.17;21.98;;;;;;;0.02;74.34;98241.00;1087417;46;20050;-78
2022/12/14 13:59:33;;;;;;;27.67;20.45;;;;;;;0.03;74.41;98238.22;1087295;54;20039;-78
2022/12/14 14:00:56;;;;;;;31.67;22.02;;;;;;;0.03;74.81;98232.97;1095370;31;20886;-79
2022/12/14 14:02:03;;;;;;;29.58;20.90;;;;;;;0.03;74.56;98232.16;1087204;54;20649;-78
2022/12/14 14:03:43;;;;;;;31.00;22.75;;;;;;;-0.09;75.44;98250.56;1087433;54;20045;-78
2022/12/14 14:04:49;;;;;;;32.10;22.75;;;;;;;-0.18;75.16;98238.97;1087857;54;20042;-78
2022/12/14 14:05:55;;;;;;;29.70;21.05;;;;;;;-0.13;75.50;98243.88;1088177;54;20038;-79
2022/12/14 14:07:29;;;;;;;29.75;21.95;;;;;;;-0.19;75.93;98249.63;1088333;54;20026;-81
2022/12/14 14:08:43;;;;;;;30.70;22.17;;;;;;;-0.19;75.94;98249.63;1088136;54;20034;-79
2022/12/14 14:10:00;;;;;;;29.65;21.45;;;;;;;-0.19;75.72;98250.44;1088104;54;20883;-80
2022/12/14 14:11:34;;;;;;;28.90;21.17;;;;;;;-0.10;75.97;98248.06;1088510;54;20034;-79
2022/12/14 14:12:52;;;;;;;29.38;20.42;;;;;;;-0.06;75.35;98252.09;1088298;54;20019;-79
2022/12/14 14:16:08;;;;;;;28.15;20.58;;;;;;;0.01;75.29;98255.91;1088428;54;20094;-78
2022/12/14 14:17:18;;;;;;;27.30;19.08;;;;;;;0.02;75.35;98257.59;1088234;54;20074;-79
2022/12/14 14:18:26;;;;;;;28.90;21.47;;;;;;;0.02;75.43;98260.22;1088987;46;20046;-81
2022/12/14 14:19:37;;;;;;;28.25;21.60;;;;;;;-0.06;75.54;98257.34;1088023;54;20263;-81
2022/12/14 14:20:44;;;;;;;30.45;22.23;;;;;;;-0.15;75.95;98261.56;1088178;39;20464;-80
2022/12/14 14:22:04;;;;;;;31.05;21.73;;;;;;;-0.17;76.19;98261.66;1087813;54;20038;-78
2022/12/14 14:23:30;;;;;;;31.20;21.67;;;;;;;-0.16;75.74;98268.59;1087823;54;20030;-78
2022/12/14 14:24:54;;;;;;;29.30;20.88;;;;;;;-0.22;76.19;98261.19;1087764;54;20030;-78
2022/12/14 14:26:21;;;;;;;27.67;20.15;;;;;;;-0.19;76.29;98271.44;1087767;54;20057;-78
2022/12/14 14:27:28;;;;;;;31.20;21.25;;;;;;;-0.18;76.46;98272.28;1087726;54;20054;-79
2022/12/14 14:28:30;;;;;;;30.50;20.73;;;;;;;-0.15;76.09;98279.94;1087778;54;20094;-80
2022/12/14 14:29:48;;;;;;;28.88;20.10;;;;;;;-0.13;76.83;98283.28;1087688;54;20086;-80
2022/12/14 14:30:55;;;;;;;28.65;20.60;;;;;;;-0.14;76.50;98278.97;1087855;54;20027;-79
2022/12/14 14:32:01;;;;;;;27.88;20.45;;;;;;;-0.08;76.54;98296.03;1087549;54;20050;-79
2022/12/14 14:33:30;;;;;;;35.53;22.95;;;;;;;-0.16;77.04;98289.59;1087771;54;20042;-81
2022/12/14 14:34:49;;;;;;;32.03;22.52;;;;;;;-0.14;76.72;98284.22;1086362;54;20073;-80
2022/12/14 14:35:50;;;;;;;35.63;23.58;;;;;;;-0.17;77.24;98290.56;1085877;54;20050;-79
2022/12/14 14:36:56;;;;;;;31.02;22.15;;;;;;;-0.19;77.45;98295.09;1085813;46;20061;-79
2022/12/14 14:38:03;;;;;;;31.48;22.63;;;;;;;-0.16;77.15;98297.47;1086067;54;20035;-80
2022/12/14 14:39:07;;;;;;;31.30;21.70;;;;;;;-0.11;77.23;98309.44;1085796;54;20038;-79
2022/12/14 14:40:29;;;;;;;31.30;21.80;;;;;;;-0.09;77.20;98300.47;1085769;54;20039;-79
2022/12/14 14:41:36;;;;;;;30.88;21.83;;;;;;;-0.09;77.37;98308.34;1085924;54;20042;-81
2022/12/14 14:42:47;;;;;;;28.63;21.25;;;;;;;-0.06;77.14;98308.13;1085861;54;20039;-81
2022/12/14 14:43:55;;;;;;;28.75;21.00;;;;;;;-0.09;77.10;98307.50;1087647;31;20638;-80
2022/12/14 14:45:02;;;;;;;31.00;22.10;;;;;;;-0.10;76.97;98311.13;1085899;54;20108;-79
2022/12/14 14:46:09;;;;;;;30.23;21.23;;;;;;;-0.09;77.04;98313.59;1085997;54;20038;-81
2022/12/14 14:47:25;;;;;;;25.77;19.58;;;;;;;-0.08;77.02;98317.06;1086162;54;20084;-80
2022/12/14 14:48:35;;;;;;;29.58;20.45;;;;;;;-0.10;77.36;98319.00;1086318;54;20038;-80
2022/12/14 14:49:40;;;;;;;31.92;22.25;;;;;;;-0.18;77.47;98325.66;1086082;54;20085;-80
2022/12/14 14:50:47;;;;;;;29.85;21.30;;;;;;;-0.19;77.31;98323.97;1086290;54;20771;-80
2022/12/14 14:51:48;;;;;;;30.30;21.10;;;;;;;-0.19;77.73;98323.97;1086169;54;20058;-80
2022/12/14 14:56:11;;;;;;;30.35;21.73;;;;;;;-0.23;78.11;98319.94;1088240;54;20035;-78
2022/12/14 14:57:35;;;;;;;30.65;23.48;;;;;;;-0.35;78.59;98329.59;1087851;54;20053;-80
2022/12/14 14:58:41;;;;;;;34.00;23.77;;;;;;;-0.37;78.50;98335.91;1088020;54;20675;-81
2022/12/14 14:59:47;;;;;;;33.75;22.30;;;;;;;-0.37;78.52;98330.66;1087710;54;20031;-78
2022/12/14 15:00:52;;;;;;;32.17;22.45;;;;;;;-0.29;78.16;98332.69;1087879;54;20049;-79
2022/12/14 15:02:00;;;;;;;31.27;22.02;;;;;;;-0.27;78.34;98334.25;1087719;54;20164;-79
2022/12/14 15:03:05;;;;;;;29.60;20.85;;;;;;;-0.31;78.20;98340.69;1087909;54;20050;-81
2022/12/14 15:04:16;;;;;;;29.95;20.73;;;;;;;-0.28;78.05;98340.44;1086377;54;20043;-81
2022/12/14 15:05:22;;;;;;;;;;;;;;;-0.34;78.47;98348.81;1086575;54;20058;-78
2022/12/14 15:06:29;;;;;;;30.85;21.20;;;;;;;-0.33;78.32;98353.09;1086430;54;19989;-79
2022/12/14 15:07:31;;;;;;;37.58;23.02;;;;;;;-0.38;78.61;98352.63;1086531;54;20042;-79
2022/12/14 15:08:40;;;;;;;29.95;20.88;;;;;;;-0.36;78.49;98358.59;1086433;54;20046;-80
2022/12/14 15:09:48;;;;;;;30.75;21.83;;;;;;;-0.36;78.62;98353.34;1086711;54;20061;-81
2022/12/14 15:10:54;;;;;;;28.70;20.38;;;;;;;-0.41;78.73;98355.47;1086724;54;20041;-78
2022/12/14 15:12:09;;;;;;;32.13;20.48;;;;;;;-0.39;78.48;98354.41;1087322;54;20073;-77
2022/12/14 15:13:20;;;;;;;30.80;21.05;;;;;;;-0.42;78.60;98359.06;1087836;46;20026;-77
2022/12/14 15:14:36;;;;;;;31.42;19.75;;;;;;;-0.39;78.68;98364.91;1087351;54;20034;-77
2022/12/14 15:15:46;;;;;;;29.73;21.60;;;;;;;-0.47;78.96;98368.09;1087583;54;20840;-78
2022/12/14 15:44:57;;;;;;;22.48;16.13;;;;;;;-0.45;78.22;98411.78;1087595;54;20017;-80
2022/12/14 15:46:02;;;;;;;24.50;17.33;;;;;;;-0.47;78.13;98412.75;1087979;46;20047;-80
2022/12/14 15:47:07;;;;;;;25.70;17.17;;;;;;;-0.46;78.23;98424.09;1087704;54;20039;-81
2022/12/14 15:48:15;;;;;;;22.30;15.55;;;;;;;-0.45;78.11;98420.53;1087992;54;20039;-79
2022/12/14 15:51:15;;;;;;;24.60;16.95;;;;;;;-0.51;78.14;98434.94;1086964;54;20729;-81
2022/12/14 15:52:31;;;;;;;22.40;15.85;;;;;;;-0.44;77.98;98429.22;1087299;54;20030;-80
2022/12/14 15:53:38;;;;;;;24.27;16.15;;;;;;;-0.43;78.01;98429.13;1087118;54;20034;-80
2022/12/14 15:54:44;;;;;;;23.58;14.45;;;;;;;-0.44;77.83;98435.34;1086969;54;20054;-81
2022/12/14 15:55:52;;;;;;;23.38;15.05;;;;;;;-0.42;77.71;98435.22;1087241;54;21252;-81
2022/12/14 15:56:59;;;;;;;20.27;14.23;;;;;;;-0.40;77.56;98435.94;1087093;46;20046;-80
2022/12/14 15:58:10;;;;;;;20.98;15.18;;;;;;;-0.41;77.54;98432.47;1087277;54;20034;-81
2022/12/14 15:59:19;;;;;;;20.42;14.73;;;;;;;-0.39;77.52;98437.63;1087186;54;20134;-81
2022/12/14 16:00:23;;;;;;;21.52;13.95;;;;;;;-0.40;77.22;98436.75;1087236;54;20034;-78
2022/12/14 16:01:47;;;;;;;20.65;14.77;;;;;;;-0.39;77.27;98435.81;1087060;54;20031;-78
2022/12/14 16:02:49;;;;;;;20.75;13.50;;;;;;;-0.32;77.19;98439.66;1090805;46;20089;-79
2022/12/14 16:03:57;;;;;;;18.83;12.80;;;;;;;-0.31;77.17;98440.50;1087124;54;20046;-78
2022/12/14 16:05:01;;;;;;;21.85;14.88;;;;;;;-0.33;76.81;98437.97;1087210;54;20048;-78
2022/12/14 16:06:07;;;;;;;23.00;15.15;;;;;;;-0.26;76.98;98445.41;1087210;54;20094;-78
2022/12/14 16:07:18;;;;;;;18.98;13.85;;;;;;;-0.27;76.54;98438.47;1091563;39;20642;-79
2022/12/14 16:08:23;;;;;;;20.40;14.50;;;;;;;-0.32;76.68;98438.81;1087234;54;20023;-79
2022/12/14 16:09:32;;;;;;;19.95;14.07;;;;;;;-0.29;76.51;98438.59;1091637;39;20741;-78
2022/12/14 16:10:34;;;;;;;19.60;13.02;;;;;;;-0.26;76.42;98440.97;1087551;54;20038;-79
2022/12/14 16:12:05;;;;;;;18.88;13.40;;;;;;;-0.27;76.33;98434.06;1087482;54;20073;-78
2022/12/14 16:13:23;;;;;;;20.33;13.30;;;;;;;-0.24;76.23;98436.44;1087492;54;20034;-80
2022/12/14 16:14:32;;;;;;;18.90;12.82;;;;;;;-0.20;76.34;98442.31;1087561;46;20302;-79
2022/12/14 16:15:39;;;;;;;19.10;13.07;;;;;;;-0.23;76.32;98443.38;1087556;54;20034;-79
2022/12/14 16:16:41;;;;;;;19.45;13.43;;;;;;;-0.23;76.27;98446.00;1087497;54;20065;-79
2022/12/14 16:17:46;;;;;;;19.17;13.32;;;;;;;-0.25;76.19;98453.16;1087484;54;20037;-78
2022/12/14 16:18:49;;;;;;;21.55;15.18;;;;;;;-0.33;76.00;98442.41;1087580;54;20784;-80
2022/12/14 16:19:58;;;;;;;22.10;14.98;;;;;;;-0.41;76.00;98439.50;1087357;54;20106;-79
2022/12/14 16:21:02;;;;;;;23.42;16.40;;;;;;;-0.48;76.02;98449.63;1087419;54;20057;-79
2022/12/14 16:22:15;;;;;;;20.15;15.18;;;;;;;-0.44;76.32;98450.22;1087381;54;20089;-80
2022/12/14 16:23:30;;;;;;;24.80;16.02;;;;;;;-0.49;76.33;98447.94;1087365;54;20039;-79
2022/12/14 16:24:31;;;;;;;22.20;15.35;;;;;;;-0.48;76.18;98454.88;1088283;39;20575;-81
2022/12/14 16:25:37;;;;;;;23.23;14.80;;;;;;;-0.43;76.18;98457.16;1087565;54;20030;-79
2022/12/14 16:26:39;;;;;;;20.92;14.52;;;;;;;-0.42;76.01;98448.34;1087598;46;20045;-81
2022/12/14 16:27:45;;;;;;;19.77;13.63;;;;;;;-0.36;75.81;98447.88;1088502;46;20034;-80
2022/12/14 16:28:50;;;;;;;20.38;13.70;;;;;;;-0.37;75.68;98451.44;1087498;54;20110;-79
2022/12/14 16:30:16;;;;;;;21.58;14.93;;;;;;;-0.38;75.56;98448.00;1087563;54;20026;-78
2022/12/14 16:31:25;;;;;;;19.52;13.80;;;;;;;-0.38;75.75;98448.00;1087353;54;20027;-79
2022/12/14 16:32:52;;;;;;;19.75;14.18;;;;;;;-0.36;75.58;98445.25;1087466;54;20030;-78
2022/12/14 16:34:08;;;;;;;19.27;13.27;;;;;;;-0.36;75.28;98447.88;1087479;54;20034;-80
2022/12/14 16:35:18;;;;;;;20.17;14.52;;;;;;;-0.37;75.36;98452.28;1087527;54;20057;-80
2022/12/14 16:36:26;;;;;;;19.48;13.50;;;;;;;-0.34;75.37;98459.09;1087467;54;20027;-79
2022/12/14 16:37:41;;;;;;;21.40;13.98;;;;;;;-0.38;75.35;98455.06;1088700;46;20026;-80
2022/12/14 16:39:02;;;;;;;20.60;14.25;;;;;;;-0.34;75.27;98459.97;1087599;54;20034;-80
2022/12/14 16:40:04;;;;;;;;;;;;;;;-0.40;75.46;98468.28;1087561;54;20110;-80
2022/12/14 16:41:09;;;;;;;19.77;13.52;;;;;;;-0.35;75.46;98455.66;1087302;54;19939;-80
2022/12/14 16:42:18;;;;;;;19.00;12.88;;;;;;;-0.27;75.49;98470.81;1087170;54;20038;-79
2022/12/14 16:52:20;;;;;;;19.65;13.82;;;;;;;-0.30;74.91;98483.34;1086995;54;20368;-78
2022/12/14 16:53:28;;;;;;;19.83;14.27;;;;;;;-0.33;74.58;98485.25;1086895;54;20086;-79
2022/12/14 16:54:33;;;;;;;19.33;13.13;;;;;;;-0.33;74.74;98484.41;1086934;54;20851;-78
2022/12/14 16:55:58;;;;;;;22.80;14.32;;;;;;;-0.44;74.32;98487.84;1086326;54;20069;-80
2022/12/14 16:57:05;;;;;;;22.40;15.15;;;;;;;-0.44;74.75;98481.75;1091282;39;21111;-79
2022/12/14 16:58:19;;;;;;;23.30;15.82;;;;;;;-0.53;74.78;98480.66;1086964;54;20065;-79
2022/12/14 16:59:22;;;;;;;20.15;14.70;;;;;;;-0.45;74.95;98485.31;1086774;54;20046;-79
2022/12/14 17:00:28;;;;;;;21.27;13.73;;;;;;;-0.39;74.86;98483.06;1085992;54;20080;-78
2022/12/14 17:01:45;;;;;;;21.63;14.75;;;;;;;-0.45;74.57;98488.78;1086430;54;20050;-78
2022/12/14 17:02:57;;;;;;;22.42;16.83;;;;;;;-0.40;74.70;98483.19;1086242;54;20049;-78
2022/12/14 17:04:02;;;;;;;22.52;15.60;;;;;;;-0.40;74.74;98491.91;1086198;54;20049;-80
2022/12/14 17:05:16;;;;;;;22.38;15.70;;;;;;;-0.39;74.86;98492.75;1086513;54;20698;-79
2022/12/14 17:06:49;;;;;;;23.13;15.60;;;;;;;-0.43;74.82;98499.19;1085687;54;20109;-79
2022/12/14 17:08:02;;;;;;;25.35;17.42;;;;;;;-0.49;74.89;98505.72;1087153;46;20075;-80
2022/12/14 17:09:04;;;;;;;22.45;15.57;;;;;;;-0.50;74.93;98504.03;1086743;54;20065;-79
2022/12/14 17:10:17;;;;;;;21.60;15.32;;;;;;;-0.43;74.90;98510.53;1086812;54;20045;-77
2022/12/14 17:11:19;;;;;;;24.90;16.67;;;;;;;-0.43;75.21;98510.53;1090299;39;20678;-78
2022/12/14 17:12:27;;;;;;;22.40;15.43;;;;;;;-0.38;74.86;98513.66;1088455;46;20038;-79
2022/12/14 17:13:48;;;;;;;24.45;16.52;;;;;;;-0.37;75.25;98514.47;1087419;54;20046;-80
2022/12/14 17:16:58;;;;;;;21.17;13.68;;;;;;;-0.27;75.08;98520.72;1086860;54;20067;-77
2022/12/14 17:18:06;;;;;;;21.20;15.05;;;;;;;-0.23;74.74;98522.19;1086885;54;20893;-78
2022/12/14 17:19:17;;;;;;;21.70;15.10;;;;;;;-0.21;74.71;98519.44;1087027;54;20043;-77
2022/12/14 17:20:25;;;;;;;20.88;14.52;;;;;;;-0.21;74.61;98520.28;1087019;54;20062;-78
2022/12/14 17:21:31;;;;;;;20.80;14.60;;;;;;;-0.13;74.68;98521.50;1086959;54;20058;-78
2022/12/14 17:22:33;;;;;;;23.58;16.10;;;;;;;-0.20;74.78;98526.38;1086931;54;20038;-78
2022/12/14 17:23:43;;;;;;;26.30;17.75;;;;;;;-0.27;74.91;98525.97;1086883;54;20042;-79
2022/12/14 17:24:45;;;;;;;24.83;16.00;;;;;;;-0.20;74.87;98521.97;1086118;54;20042;-80
2022/12/14 17:25:49;;;;;;;22.80;14.63;;;;;;;-0.15;75.00;98524.25;1085643;54;20777;-80
2022/12/14 17:26:51;;;;;;;21.20;14.13;;;;;;;-0.10;74.97;98522.09;1085084;54;20049;-79
2022/12/14 17:27:55;;;;;;;21.52;14.10;;;;;;;-0.06;74.77;98518.31;1086142;54;20065;-78
2022/12/14 17:28:57;;;;;;;22.00;15.32;;;;;;;-0.08;74.72;98522.84;1087440;39;20364;-79
2022/12/14 17:30:02;;;;;;;22.30;15.55;;;;;;;-0.04;74.64;98526.06;1086361;54;20969;-79
2022/12/14 17:31:11;;;;;;;19.67;14.57;;;;;;;-0.02;74.79;98532.06;1086152;54;20185;-79
2022/12/14 17:32:20;;;;;;;20.73;14.23;;;;;;;0.01;74.49;98538.88;1086395;54;20042;-78
2022/12/14 17:33:26;;;;;;;21.08;14.88;;;;;;;-0.01;74.45;98536.34;1085998;54;20031;-79
2022/12/14 17:34:36;;;;;;;24.20;17.17;;;;;;;-0.02;74.81;98532.06;1086796;54;20090;-78
2022/12/14 17:35:40;;;;;;;22.60;16.10;;;;;;;-0.02;74.67;98539.94;1087417;47;20027;-80
2022/12/14 17:36:48;;;;;;;21.15;15.05;;;;;;;-0.02;74.68;98538.13;1086549;54;20138;-81
2022/12/14 17:37:54;;;;;;;21.40;15.35;;;;;;;0.01;74.92;98523.91;1087122;54;20054;-79
2022/12/14 17:39:05;;;;;;;24.08;15.90;;;;;;;0.00;75.01;98535.41;1087062;54;20035;-78
2022/12/14 17:40:11;;;;;;;22.25;16.42;;;;;;;0.04;74.77;98536.84;1085574;54;20049;-82
2022/12/14 17:41:25;;;;;;;20.33;14.63;;;;;;;0.05;74.55;98532.44;1086086;54;20046;-82
2022/12/14 17:42:26;;;;;;;24.20;17.02;;;;;;;0.03;74.70;98532.53;1086873;54;20065;-79
2022/12/14 17:43:31;;;;;;;23.90;16.83;;;;;;;0.03;74.75;98529.91;1086206;54;20061;-80
2022/12/14 17:44:33;;;;;;;23.00;16.20;;;;;;;0.02;74.85;98530.03;1086462;31;20514;-80
2022/12/14 17:45:37;;;;;;;23.75;16.08;;;;;;;0.09;74.76;98524.22;1085612;54;20094;-80
2022/12/14 17:46:38;;;;;;;22.17;15.55;;;;;;;0.12;74.72;98529.22;1086669;54;20042;-80
2022/12/14 17:47:44;;;;;;;21.98;15.45;;;;;;;0.14;74.61;98527.31;1089144;39;20494;-79
2022/12/14 17:48:48;;;;;;;21.65;14.98;;;;;;;0.17;74.54;98530.66;1086729;54;20039;-80
2022/12/14 17:49:54;;;;;;;23.17;16.65;;;;;;;0.08;74.67;98525.16;1086517;54;20047;-79
2022/12/14 17:50:58;;;;;;;23.20;17.05;;;;;;;0.11;74.76;98527.53;1086270;54;20034;-80
2022/12/14 17:52:06;;;;;;;21.38;16.02;;;;;;;0.14;74.90;98529.94;1086764;54;20102;-80
2022/12/14 17:53:14;;;;;;;23.83;16.20;;;;;;;0.16;74.75;98542.97;1086906;54;20043;-80
2022/12/14 17:54:19;;;;;;;23.20;15.88;;;;;;;0.18;74.82;98534.97;1085890;47;20548;-80
2022/12/14 17:55:26;;;;;;;24.13;16.83;;;;;;;0.21;74.82;98532.09;1086629;54;20038;-80
2022/12/14 17:56:27;;;;;;;24.48;17.65;;;;;;;0.17;74.67;98535.94;1087288;54;21205;-78
2022/12/14 17:57:31;;;;;;;25.80;17.23;;;;;;;0.19;74.63;98534.84;1087402;54;20039;-78
2022/12/14 17:58:33;;;;;;;25.88;17.30;;;;;;;0.11;74.88;98535.41;1087257;54;20030;-79
2022/12/14 17:59:37;;;;;;;25.20;18.50;;;;;;;0.13;74.97;98541.41;1089260;47;20058;-78
2022/12/14 18:01:59;;;;;;;24.52;16.15;;;;;;;0.15;74.90;98544.75;1088139;39;21131;-78
2022/12/14 18:03:01;;;;;;;24.00;17.27;;;;;;;0.20;75.08;98552.31;1087307;54;20034;-78
2022/12/14 18:04:06;;;;;;;28.50;19.25;;;;;;;0.04;75.44;98547.34;1087361;54;20037;-80
2022/12/14 18:05:16;;;;;;;28.63;19.73;;;;;;;-0.02;75.36;98559.16;1087263;54;20069;-78
2022/12/14 18:06:20;;;;;;;26.77;18.95;;;;;;;0.00;75.33;98561.69;1087152;54;20030;-80
2022/12/14 18:07:22;;;;;;;27.83;20.85;;;;;;;-0.04;75.41;98560.22;1086806;54;20039;-79
2022/12/14 18:08:26;;;;;;;27.15;19.75;;;;;;;0.01;75.43;98559.88;1086526;54;20069;-79
2022/12/14 18:09:34;;;;;;;26.77;19.50;;;;;;;-0.01;75.24;98552.94;1086087;47;20133;-80
2022/12/14 18:10:36;;;;;;;29.63;21.05;;;;;;;-0.23;75.74;98553.69;1086241;54;20061;-79
2022/12/14 18:11:40;;;;;;;28.45;21.55;;;;;;;-0.27;76.13;98557.50;1086755;54;20030;-78
2022/12/14 18:12:42;;;;;;;28.02;20.20;;;;;;;-0.10;75.81;98568.56;1086747;54;20043;-77
2022/12/14 18:13:46;;;;;;;30.80;21.92;;;;;;;-0.19;76.08;98565.66;1086837;54;20026;-78
2022/12/14 18:14:48;;;;;;;26.48;19.15;;;;;;;-0.11;75.74;98569.53;1086505;54;20050;-78
2022/12/14 18:15:54;;;;;;;27.58;21.33;;;;;;;-0.11;75.46;98569.53;1087508;39;20732;-79
2022/12/14 18:16:59;;;;;;;26.77;19.67;;;;;;;-0.03;75.17;98564.53;1086791;54;20035;-78
2022/12/14 18:18:01;;;;;;;29.77;20.63;;;;;;;0.03;75.13;98573.75;1087259;54;20090;-76
2022/12/14 18:19:05;;;;;;;26.30;19.00;;;;;;;0.10;75.00;98570.53;1085954;54;20034;-81
2022/12/14 18:20:09;;;;;;;25.90;18.77;;;;;;;0.15;74.63;98573.69;1086062;54;20042;-81
2022/12/14 18:21:19;;;;;;;29.15;19.35;;;;;;;-0.01;75.05;98573.16;1085052;54;20042;-80
2022/12/14 18:22:21;;;;;;;27.35;19.77;;;;;;;0.04;75.06;98568.38;1086100;46;20068;-83
2022/12/14 18:23:26;;;;;;;27.38;20.67;;;;;;;-0.03;75.36;98577.66;1087403;54;20057;-83
2022/12/14 18:24:33;;;;;;;29.98;21.73;;;;;;;-0.13;75.23;98568.78;1086795;54;20316;-82
2022/12/14 18:25:37;;;;;;;29.35;20.17;;;;;;;-0.03;75.15;98572.41;1087912;54;20544;-83
2022/12/14 18:29:30;;;;;;;30.05;21.17;;;;;;;-0.03;74.95;98582.94;1086026;54;20038;-81
2022/12/14 18:30:33;;;;;;;25.67;19.38;;;;;;;0.04;74.89;98568.38;1085622;54;20042;-80
2022/12/14 18:31:39;;;;;;;28.42;20.88;;;;;;;0.10;74.83;98567.91;1085683;54;20026;-81
2022/12/14 18:32:41;;;;;;;27.38;19.27;;;;;;;0.12;74.80;98573.06;1085154;54;20046;-83
2022/12/14 18:33:45;;;;;;;30.50;20.88;;;;;;;-0.03;75.01;98569.78;1084995;54;20089;-80
2022/12/14 18:34:49;;;;;;;30.10;21.42;;;;;;;-0.03;74.98;98565.34;1085013;54;20042;-80
2022/12/14 18:35:52;;;;;;;33.53;21.70;;;;;;;-0.06;74.92;98564.75;1085057;54;20066;-80
2022/12/14 18:36:57;;;;;;;27.45;20.73;;;;;;;0.00;74.81;98569.56;1085457;54;20050;-79
2022/12/14 18:37:58;;;;;;;31.80;22.42;;;;;;;-0.16;75.34;98570.69;1085008;46;20039;-82
2022/12/14 18:39:03;;;;;;;31.95;23.13;;;;;;;-0.26;75.80;98574.94;1089635;39;20456;-80
2022/12/14 18:40:11;;;;;;;33.35;23.42;;;;;;;-0.42;75.63;98577.81;1086311;54;20041;-82
2022/12/14 18:41:17;;;;;;;36.50;24.73;;;;;;;-0.48;76.14;98580.91;1086360;54;20039;-79
2022/12/14 18:42:19;;;;;;;36.35;25.15;;;;;;;-0.56;76.33;98583.25;1088282;39;20425;-82
2022/12/14 18:43:27;;;;;;;35.03;24.17;;;;;;;-0.38;75.93;98586.34;1087215;54;20026;-83
2022/12/14 18:44:31;;;;;;;32.50;24.13;;;;;;;-0.22;75.43;98581.66;1086798;54;20042;-83
2022/12/14 18:45:34;;;;;;;32.88;22.55;;;;;;;-0.18;75.47;98577.84;1086455;54;20061;-82
2022/12/14 18:46:38;;;;;;;31.17;22.38;;;;;;;-0.12;75.14;98586.22;1086537;54;20030;-81
2022/12/14 18:47:40;;;;;;;31.15;21.85;;;;;;;-0.06;75.02;98586.63;1086765;54;20039;-81
2022/12/14 18:48:45;;;;;;;28.30;19.80;;;;;;;-0.01;74.72;98588.91;1087474;54;20034;-80
2022/12/14 18:49:47;;;;;;;28.75;20.35;;;;;;;0.06;74.50;98579.63;1087571;54;20721;-80
2022/12/14 18:50:52;;;;;;;32.70;21.48;;;;;;;0.05;74.49;98577.94;1087483;54;20038;-78
2022/12/14 18:51:54;;;;;;;27.40;20.33;;;;;;;0.06;74.42;98594.53;1087519;54;20714;-80
2022/12/14 18:52:59;;;;;;;28.20;20.80;;;;;;;0.12;74.31;98588.84;1087583;54;20029;-80
2022/12/14 18:54:04;;;;;;;27.00;19.45;;;;;;;0.14;74.44;98590.41;1087507;54;20049;-79
2022/12/14 18:55:15;;;;;;;27.15;19.02;;;;;;;0.11;74.55;98587.16;1087469;54;20022;-77
2022/12/14 18:56:20;;;;;;;27.15;18.63;;;;;;;0.15;74.21;98594.69;1087440;54;20027;-79
2022/12/14 18:57:22;;;;;;;27.05;18.77;;;;;;;0.19;74.21;98583.97;1087576;46;20058;-78
2022/12/14 18:58:29;;;;;;;26.63;19.02;;;;;;;0.21;74.18;98589.94;1087512;54;20094;-78
2022/12/14 18:59:30;;;;;;;28.38;19.35;;;;;;;0.16;74.03;98587.63;1087384;54;20373;-80
2022/12/14 19:00:38;;;;;;;31.50;20.23;;;;;;;0.08;74.37;98590.84;1087347;54;20077;-81
2022/12/14 19:01:42;;;;;;;28.63;20.33;;;;;;;0.17;74.42;98591.13;1089181;39;20500;-80
2022/12/14 19:02:45;;;;;;;32.15;20.38;;;;;;;0.13;74.36;98595.78;1087259;54;20113;-81
2022/12/14 19:03:50;;;;;;;29.88;20.85;;;;;;;0.14;74.34;98593.03;1087219;54;20042;-81
2022/12/14 19:04:54;;;;;;;32.97;22.50;;;;;;;-0.03;74.76;98588.19;1087195;54;20042;-82
2022/12/14 19:06:05;;;;;;;30.48;21.60;;;;;;;0.04;74.40;98586.78;1087441;54;20041;-82
2022/12/14 19:07:06;;;;;;;30.02;22.88;;;;;;;0.01;74.45;98586.97;1087727;54;20014;-80
2022/12/14 19:08:12;;;;;;;30.70;21.20;;;;;;;0.06;74.35;98590.13;1087195;54;20038;-83
2022/12/14 19:13:52;;;;;;;30.25;21.23;;;;;;;0.21;73.53;98603.06;1088246;54;20030;-82
2022/12/14 19:14:57;;;;;;;25.73;18.55;;;;;;;0.19;73.69;98607.63;1087038;54;20042;-81
2022/12/14 19:16:15;;;;;;;31.85;21.23;;;;;;;-0.03;73.61;98603.94;1088137;46;20607;-77
2022/12/14 19:17:17;;;;;;;31.58;22.23;;;;;;;-0.12;74.30;98609.88;1089223;39;20401;-80
2022/12/14 19:18:22;;;;;;;35.78;24.30;;;;;;;-0.29;74.57;98605.84;1086393;54;20049;-80
2022/12/14 19:19:26;;;;;;;31.17;22.75;;;;;;;-0.07;74.34;98618.25;1087833;31;20481;-80
2022/12/14 19:20:28;;;;;;;33.00;23.08;;;;;;;-0.10;74.37;98611.44;1086401;54;20039;-83
2022/12/14 19:21:32;;;;;;;30.13;21.25;;;;;;;-0.01;74.33;98621.28;1087270;46;20080;-81
2022/12/14 19:22:34;;;;;;;28.38;20.10;;;;;;;0.09;74.27;98613.56;1085911;54;20130;-80
2022/12/14 19:23:38;;;;;;;26.70;19.50;;;;;;;0.18;73.85;98624.34;1085536;54;20106;-80
2022/12/14 19:24:39;;;;;;;27.98;19.75;;;;;;;0.22;73.71;98620.53;1086009;54;20069;-80
2022/12/14 19:25:44;;;;;;;31.20;22.02;;;;;;;0.01;73.96;98622.94;1086840;39;20598;-81
2022/12/14 19:26:48;;;;;;;30.88;22.33;;;;;;;-0.12;74.23;98623.84;1086549;54;20035;-80
2022/12/14 19:27:53;;;;;;;32.50;23.13;;;;;;;-0.28;74.80;98623.28;1086673;46;20050;-78
2022/12/14 19:29:11;;;;;;;32.30;23.80;;;;;;;-0.34;74.95;98621.94;1086603;54;20075;-81
2022/12/14 19:30:18;;;;;;;31.02;22.85;;;;;;;-0.29;74.72;98618.97;1086738;54;20539;-80
2022/12/14 19:31:22;;;;;;;34.35;23.40;;;;;;;-0.38;75.23;98625.75;1087167;54;20038;-82
2022/12/14 19:32:26;;;;;;;35.13;23.40;;;;;;;-0.22;74.56;98622.81;1087005;54;20065;-80
2022/12/14 19:33:31;;;;;;;28.23;19.67;;;;;;;-0.09;74.37;98625.41;1087048;54;20045;-81